createdAt,value
2023-02-12T00:02:00.214Z,14.45
2023-02-12T00:04:26.886Z,13.43
2023-02-12T00:06:53.546Z,13.75
2023-02-12T00:09:20.190Z,13.52
2023-02-12T00:11:46.854Z,13.60
2023-02-12T00:14:13.474Z,13.57
2023-02-12T00:16:40.127Z,13.57
2023-02-12T00:19:06.748Z,12.80
2023-02-12T00:21:33.454Z,13.45
2023-02-12T00:24:00.086Z,14.02
2023-02-12T00:26:26.824Z,16.60
2023-02-12T00:28:54.029Z,15.95
2023-02-12T00:31:24.577Z,14.93
2023-02-12T00:33:51.433Z,16.20
2023-02-12T00:36:21.010Z,15.95
2023-02-12T00:38:47.923Z,13.68
2023-02-12T00:41:14.767Z,14.60
2023-02-12T00:43:41.746Z,15.90
2023-02-12T00:46:08.990Z,20.08
2023-02-12T00:48:36.762Z,19.33
2023-02-12T00:51:03.820Z,21.52
2023-02-12T00:53:31.362Z,21.85
2023-02-12T00:55:58.617Z,21.00
2023-02-12T00:58:25.359Z,16.60
2023-02-12T01:00:53.088Z,16.85
2023-02-12T01:03:20.560Z,15.02
2023-02-12T01:05:47.371Z,16.45
2023-02-12T01:08:15.913Z,16.98
2023-02-12T01:10:43.807Z,16.33
2023-02-12T01:13:13.958Z,14.75
2023-02-12T01:15:42.381Z,15.55
2023-02-12T01:18:09.183Z,15.48
2023-02-12T01:20:35.849Z,14.98
2023-02-12T01:23:02.742Z,15.02
2023-02-12T01:25:29.485Z,15.35
2023-02-12T01:27:56.318Z,15.20
2023-02-12T01:30:24.158Z,14.70
2023-02-12T01:32:50.835Z,16.80
2023-02-12T01:35:17.557Z,16.15
2023-02-12T01:37:44.744Z,16.50
2023-02-12T01:40:14.707Z,14.68
2023-02-12T01:42:41.393Z,13.98
2023-02-12T01:45:45.271Z,13.35
2023-02-12T01:48:14.327Z,13.40
2023-02-12T01:50:43.350Z,14.57
2023-02-12T01:53:10.246Z,13.50
2023-02-12T01:55:36.943Z,13.65
2023-02-12T01:58:05.511Z,13.60
2023-02-12T02:00:33.173Z,13.00
2023-02-12T02:03:01.272Z,14.13
2023-02-12T02:05:59.447Z,13.27
2023-02-12T02:08:26.240Z,14.77
2023-02-12T02:10:52.944Z,15.20
2023-02-12T02:13:58.232Z,15.25
2023-02-12T02:16:27.893Z,16.67
2023-02-12T02:19:08.013Z,16.73
2023-02-12T02:21:57.607Z,18.20
2023-02-12T02:24:46.096Z,16.52
2023-02-12T02:27:21.056Z,18.50
2023-02-12T02:30:16.456Z,17.95
2023-02-12T02:32:45.876Z,22.85
2023-02-12T02:35:20.504Z,21.58
2023-02-12T02:38:13.193Z,20.08
2023-02-12T02:40:53.397Z,22.02
2023-02-12T02:43:28.075Z,20.85
2023-02-12T02:46:35.368Z,20.17
2023-02-12T02:49:10.620Z,19.30
2023-02-12T02:51:43.932Z,18.45
2023-02-12T02:54:18.577Z,17.73
2023-02-12T02:56:47.746Z,18.98
2023-02-12T02:59:26.645Z,18.58
2023-02-12T03:02:12.980Z,17.10
2023-02-12T03:04:45.724Z,17.33
2023-02-12T03:07:53.662Z,16.13
2023-02-12T03:10:31.549Z,17.75
2023-02-12T03:13:02.158Z,16.70
2023-02-12T03:15:37.735Z,16.83
2023-02-12T03:18:12.663Z,17.17
2023-02-12T03:20:45.567Z,17.38
2023-02-12T03:23:21.688Z,16.83
2023-02-12T03:26:04.334Z,17.88
2023-02-12T03:28:34.818Z,16.33
2023-02-12T03:31:20.221Z,17.17
2023-02-12T03:34:17.757Z,15.00
2023-02-12T03:36:56.763Z,16.60
2023-02-12T03:39:58.301Z,17.17
2023-02-12T03:42:34.123Z,16.20
2023-02-12T03:45:22.939Z,15.63
2023-02-12T03:48:07.108Z,14.20
2023-02-12T03:50:44.764Z,15.38
2023-02-12T03:53:11.638Z,15.85
2023-02-12T03:55:43.583Z,15.15
2023-02-12T03:58:16.110Z,13.85
2023-02-12T04:00:43.401Z,15.60
2023-02-12T04:03:10.107Z,16.05
2023-02-12T04:05:36.822Z,16.05
2023-02-12T04:08:08.638Z,15.00
2023-02-12T04:10:59.231Z,15.80
2023-02-12T04:13:49.259Z,16.10
2023-02-12T04:16:29.722Z,15.63
2023-02-12T04:18:56.976Z,15.25
2023-02-12T04:21:42.961Z,16.27
2023-02-12T04:24:27.981Z,17.05
2023-02-12T04:27:09.934Z,16.20
2023-02-12T04:30:05.813Z,17.67
2023-02-12T04:32:44.032Z,16.73
2023-02-12T04:35:19.615Z,18.10
2023-02-12T04:37:50.860Z,16.35
2023-02-12T04:40:19.418Z,17.02
2023-02-12T04:42:48.662Z,17.08
2023-02-12T04:45:21.368Z,15.82
2023-02-12T04:47:48.106Z,14.97
2023-02-12T04:50:14.905Z,16.08
2023-02-12T04:52:41.548Z,15.30
2023-02-12T04:55:08.295Z,15.40
2023-02-12T04:57:34.943Z,16.95
2023-02-12T05:00:01.554Z,15.50
2023-02-12T05:02:28.204Z,14.43
2023-02-12T05:04:55.176Z,16.73
2023-02-12T05:07:21.837Z,16.17
2023-02-12T05:09:49.029Z,18.13
2023-02-12T05:12:15.658Z,16.30
2023-02-12T05:14:42.293Z,17.80
2023-02-12T05:17:08.947Z,17.20
2023-02-12T05:19:35.570Z,16.55
2023-02-12T05:22:02.215Z,17.38
2023-02-12T05:24:28.814Z,17.60
2023-02-12T05:26:55.455Z,18.05
2023-02-12T05:29:22.107Z,15.70
2023-02-12T05:31:48.858Z,16.65
2023-02-12T05:34:15.669Z,16.80
2023-02-12T05:36:42.326Z,16.55
2023-02-12T05:39:10.546Z,14.98
2023-02-12T05:41:37.166Z,15.40
2023-02-12T05:44:04.960Z,14.68
2023-02-12T05:46:31.993Z,16.02
2023-02-12T05:48:58.679Z,17.00
2023-02-12T05:51:26.621Z,15.15
2023-02-12T05:53:57.489Z,19.67
2023-02-12T05:56:30.260Z,16.58
2023-02-12T05:59:05.228Z,18.80
2023-02-12T06:01:40.046Z,18.33
2023-02-12T06:04:10.900Z,19.27
2023-02-12T06:06:37.667Z,19.52
2023-02-12T06:09:04.369Z,20.73
2023-02-12T06:11:31.011Z,21.90
2023-02-12T06:13:57.647Z,21.80
2023-02-12T06:16:26.708Z,21.88
2023-02-12T06:18:54.401Z,19.63
2023-02-12T06:21:22.691Z,21.20
2023-02-12T06:23:50.292Z,17.98
2023-02-12T06:26:17.334Z,18.42
2023-02-12T06:28:44.497Z,19.70
2023-02-12T06:31:20.363Z,21.30
2023-02-12T06:33:47.080Z,20.98
2023-02-12T06:36:13.767Z,18.98
2023-02-12T06:38:40.745Z,20.23
2023-02-12T06:41:07.409Z,20.63
2023-02-12T06:43:34.051Z,20.83
2023-02-12T06:46:04.769Z,18.83
2023-02-12T06:48:32.068Z,19.38
2023-02-12T06:51:09.546Z,19.05
2023-02-12T06:53:36.565Z,19.25
2023-02-12T06:56:05.507Z,19.58
2023-02-12T06:58:32.179Z,20.98
2023-02-12T07:01:13.753Z,18.83
2023-02-12T07:03:42.185Z,20.45
2023-02-12T07:06:09.619Z,20.35
2023-02-12T07:08:36.582Z,20.23
2023-02-12T07:11:04.983Z,19.23
2023-02-12T07:13:34.673Z,18.40
2023-02-12T07:16:06.447Z,21.17
2023-02-12T07:18:34.538Z,20.13
2023-02-12T07:21:01.455Z,22.60
2023-02-12T07:23:28.604Z,22.83
2023-02-12T07:26:02.881Z,23.45
2023-02-12T07:28:33.485Z,20.20
2023-02-12T07:31:07.682Z,20.90
2023-02-12T07:33:34.908Z,21.42
2023-02-12T07:36:02.417Z,21.88
2023-02-12T07:38:29.550Z,23.95
2023-02-12T07:40:58.768Z,24.48
2023-02-12T07:43:25.429Z,23.02
2023-02-12T07:45:52.089Z,22.83
2023-02-12T07:48:18.741Z,22.45
2023-02-12T07:50:45.350Z,22.77
2023-02-12T07:53:12.004Z,22.63
2023-02-12T07:55:38.611Z,25.48
2023-02-12T07:58:05.307Z,22.92
2023-02-12T08:00:31.967Z,22.67
2023-02-12T08:02:58.634Z,23.67
2023-02-12T08:05:25.246Z,23.13
2023-02-12T08:07:51.905Z,22.95
2023-02-12T08:10:22.220Z,23.73
2023-02-12T08:12:48.861Z,22.85
2023-02-12T08:15:15.604Z,23.23
2023-02-12T08:17:43.542Z,23.48
2023-02-12T08:20:10.478Z,23.33
2023-02-12T08:22:37.094Z,22.58
2023-02-12T08:25:03.786Z,23.65
2023-02-12T08:27:30.402Z,24.25
2023-02-12T08:29:57.021Z,24.27
2023-02-12T08:32:23.620Z,25.15
2023-02-12T08:34:50.252Z,26.13
2023-02-12T08:37:16.903Z,25.77
2023-02-12T08:39:43.608Z,26.45
2023-02-12T08:42:10.368Z,26.33
2023-02-12T08:44:37.189Z,27.05
2023-02-12T08:47:04.061Z,26.48
2023-02-12T08:49:30.860Z,25.45
2023-02-12T08:51:59.485Z,26.55
2023-02-12T08:54:28.692Z,27.42
2023-02-12T08:56:57.845Z,27.55
2023-02-12T08:59:24.518Z,32.78
2023-02-12T09:01:52.381Z,31.50
2023-02-12T09:04:23.931Z,31.30
2023-02-12T09:06:50.873Z,31.25
2023-02-12T09:09:19.584Z,30.50
2023-02-12T09:11:46.444Z,30.45
2023-02-12T09:14:16.276Z,31.65
2023-02-12T09:16:43.528Z,30.75
2023-02-12T09:19:13.185Z,27.80
2023-02-12T09:21:39.887Z,30.83
2023-02-12T09:24:06.836Z,28.00
2023-02-12T09:26:33.442Z,28.67
2023-02-12T09:29:02.793Z,27.88
2023-02-12T09:31:31.728Z,26.38
2023-02-12T09:34:05.079Z,28.05
2023-02-12T09:36:32.711Z,25.90
2023-02-12T09:39:00.358Z,24.85
2023-02-12T09:41:36.094Z,24.10
2023-02-12T09:44:22.942Z,24.85
2023-02-12T09:47:02.759Z,25.38
2023-02-12T09:49:29.351Z,22.70
2023-02-12T09:51:56.864Z,22.42
2023-02-12T09:54:30.218Z,20.98
2023-02-12T09:59:36.157Z,19.85
2023-02-12T10:02:03.128Z,19.80
2023-02-12T10:04:29.804Z,19.25
2023-02-12T10:07:08.132Z,19.48
2023-02-12T10:10:12.533Z,19.30
2023-02-12T10:13:08.504Z,19.05
2023-02-12T10:16:21.934Z,17.63
2023-02-12T10:19:08.534Z,19.70
2023-02-12T10:21:44.772Z,20.10
2023-02-12T10:24:17.063Z,18.20
2023-02-12T10:26:55.598Z,19.60
2023-02-12T10:29:25.377Z,18.60
2023-02-12T10:32:04.557Z,19.38
2023-02-12T10:34:35.469Z,19.73
2023-02-12T10:37:28.708Z,18.75
2023-02-12T10:40:01.720Z,20.95
2023-02-12T10:42:41.964Z,20.13
2023-02-12T10:45:25.019Z,19.73
2023-02-12T10:48:06.029Z,20.23
2023-02-12T10:50:32.644Z,20.33
2023-02-12T10:53:03.443Z,18.55
2023-02-12T10:55:35.430Z,19.10
2023-02-12T10:58:04.177Z,19.40
2023-02-12T11:00:33.543Z,20.27
2023-02-12T11:03:12.541Z,19.75
2023-02-12T11:05:44.037Z,19.05
2023-02-12T11:08:33.590Z,20.25
2023-02-12T11:11:37.599Z,19.83
2023-02-12T11:17:00.071Z,19.42
2023-02-12T11:19:32.316Z,18.42
2023-02-12T11:22:14.647Z,20.45
2023-02-12T11:24:41.310Z,21.08
2023-02-12T11:27:22.243Z,20.08
2023-02-12T11:30:15.377Z,20.90
2023-02-12T11:32:42.980Z,18.97
2023-02-12T11:35:27.065Z,18.10
2023-02-12T11:37:59.191Z,19.00
2023-02-12T11:40:28.734Z,18.58
2023-02-12T11:42:59.084Z,19.38
2023-02-12T11:45:34.083Z,19.38
2023-02-12T11:48:01.277Z,18.33
2023-02-12T11:50:37.648Z,18.00
2023-02-12T11:53:09.468Z,18.73
2023-02-12T11:55:39.917Z,18.17
2023-02-12T11:58:16.798Z,17.80
2023-02-12T12:00:56.495Z,17.30
2023-02-12T12:04:00.832Z,17.13
2023-02-12T12:06:54.953Z,17.58
2023-02-12T12:09:27.387Z,18.65
2023-02-12T12:12:23.677Z,18.40
2023-02-12T12:15:17.714Z,16.98
2023-02-12T12:18:20.553Z,18.17
2023-02-12T12:20:56.928Z,17.17
2023-02-12T12:23:38.492Z,15.80
2023-02-12T12:26:14.777Z,16.05
2023-02-12T12:28:47.792Z,18.33
2023-02-12T12:31:20.433Z,14.40
2023-02-12T12:33:51.477Z,15.60
2023-02-12T12:36:37.041Z,15.07
2023-02-12T12:39:26.918Z,14.95
2023-02-12T12:42:27.937Z,15.52
2023-02-12T12:45:11.166Z,13.57
2023-02-12T12:48:09.988Z,14.65
2023-02-12T12:50:54.365Z,13.57
2023-02-12T12:53:44.932Z,14.93
2023-02-12T12:56:53.180Z,15.35
2023-02-12T12:59:30.283Z,14.57
2023-02-12T13:02:24.888Z,13.38
2023-02-12T13:05:19.495Z,14.20
2023-02-12T13:08:01.929Z,14.00
2023-02-12T13:10:39.867Z,13.82
2023-02-12T13:13:29.451Z,13.38
2023-02-12T13:16:17.124Z,14.45
2023-02-12T13:19:15.869Z,12.93
2023-02-12T13:22:07.848Z,14.73
2023-02-12T13:24:57.873Z,14.07
2023-02-12T13:27:28.291Z,15.15
2023-02-12T13:30:05.997Z,13.73
2023-02-12T13:32:43.209Z,17.13
2023-02-12T13:35:18.589Z,14.38
2023-02-12T13:37:49.674Z,14.50
2023-02-12T13:40:27.215Z,15.27
2023-02-12T13:43:06.013Z,16.17
2023-02-12T13:45:57.616Z,15.95
2023-02-12T13:48:42.974Z,14.85
2023-02-12T13:51:28.550Z,15.40
2023-02-12T13:54:30.618Z,15.32
2023-02-12T13:57:01.461Z,13.82
2023-02-12T13:59:34.209Z,13.38
2023-02-12T14:02:04.953Z,13.15
2023-02-12T14:04:45.374Z,13.05
2023-02-12T14:07:14.811Z,14.23
2023-02-12T14:09:50.504Z,12.93
2023-02-12T14:12:26.419Z,12.10
2023-02-12T14:14:54.285Z,14.60
2023-02-12T14:17:30.867Z,14.98
2023-02-12T14:20:03.787Z,14.77
2023-02-12T14:22:30.358Z,15.63
2023-02-12T14:24:57.813Z,14.77
2023-02-12T14:27:43.836Z,14.98
2023-02-12T14:30:10.461Z,12.40
2023-02-12T14:32:55.831Z,15.85
2023-02-12T14:35:37.377Z,13.75
2023-02-12T14:38:32.168Z,12.63
2023-02-12T14:41:37.746Z,11.30
2023-02-12T14:44:30.937Z,10.45
2023-02-12T14:47:25.192Z,9.77
2023-02-12T14:49:55.668Z,11.63
2023-02-12T14:52:27.286Z,10.70
2023-02-12T14:55:03.889Z,9.40
2023-02-12T14:57:38.515Z,9.18
2023-02-12T15:00:17.413Z,10.07
2023-02-12T15:02:53.236Z,9.07
2023-02-12T15:05:27.415Z,8.95
2023-02-12T15:07:59.133Z,9.90
2023-02-12T15:10:34.393Z,8.77
2023-02-12T15:13:43.343Z,8.88
2023-02-12T15:16:24.216Z,9.02
2023-02-12T15:19:12.045Z,9.00
2023-02-12T15:21:39.372Z,9.70
2023-02-12T15:24:10.290Z,10.20
2023-02-12T15:26:46.564Z,9.52
2023-02-12T15:29:24.442Z,9.88
2023-02-12T15:32:04.049Z,9.48
2023-02-12T15:34:33.549Z,8.77
2023-02-12T15:37:02.374Z,8.82
2023-02-12T15:39:37.818Z,8.50
2023-02-12T15:42:04.520Z,8.05
2023-02-12T15:44:33.237Z,8.30
2023-02-12T15:47:03.333Z,8.90
2023-02-12T15:49:34.428Z,9.65
2023-02-12T15:52:04.876Z,9.00
2023-02-12T15:54:31.845Z,9.18
2023-02-12T15:56:58.703Z,8.32
2023-02-12T15:59:29.258Z,8.85
2023-02-12T16:02:02.643Z,8.10
2023-02-12T16:06:59.854Z,8.55
2023-02-12T16:09:29.288Z,8.95
2023-02-12T16:11:59.132Z,8.57
2023-02-12T16:14:34.904Z,8.55
2023-02-12T16:17:01.575Z,9.35
2023-02-12T16:19:30.490Z,8.82
2023-02-12T16:22:10.439Z,10.07
2023-02-12T16:24:39.810Z,10.32
2023-02-12T16:27:18.814Z,10.13
2023-02-12T16:29:54.134Z,10.80
2023-02-12T16:32:42.113Z,11.98
2023-02-12T16:35:11.485Z,10.63
2023-02-12T16:37:38.113Z,10.93
2023-02-12T16:40:26.047Z,10.07
2023-02-12T16:42:52.640Z,10.70
2023-02-12T16:45:28.278Z,10.38
2023-02-12T16:48:08.749Z,10.32
2023-02-12T16:50:39.297Z,11.05
2023-02-12T16:53:22.894Z,9.48
2023-02-12T16:55:49.856Z,8.70
2023-02-12T16:58:16.763Z,8.27
2023-02-12T17:00:43.640Z,7.95
2023-02-12T17:03:14.914Z,8.60
2023-02-12T17:05:43.583Z,9.82
2023-02-12T17:08:13.783Z,9.63
2023-02-12T17:10:40.939Z,9.25
2023-02-12T17:13:08.964Z,9.30
2023-02-12T17:15:42.701Z,8.63
2023-02-12T17:18:11.430Z,9.02
2023-02-12T17:20:38.734Z,8.38
2023-02-12T17:23:06.414Z,9.27
2023-02-12T17:25:34.524Z,8.55
2023-02-12T17:28:01.210Z,9.35
2023-02-12T17:30:28.971Z,9.80
2023-02-12T17:32:55.722Z,9.82
2023-02-12T17:35:22.342Z,11.32
2023-02-12T17:37:49.038Z,10.23
2023-02-12T17:40:16.640Z,9.77
2023-02-12T17:42:43.364Z,10.20
2023-02-12T17:45:10.135Z,9.13
2023-02-12T17:47:39.848Z,9.75
2023-02-12T17:50:16.662Z,8.70
2023-02-12T17:52:43.588Z,9.52
2023-02-12T17:55:11.574Z,8.68
2023-02-12T17:57:39.175Z,9.68
2023-02-12T18:00:07.443Z,8.93
2023-02-12T18:02:34.063Z,8.57
2023-02-12T18:05:00.811Z,8.70
2023-02-12T18:07:27.541Z,9.30
2023-02-12T18:09:54.174Z,7.95
2023-02-12T18:12:20.852Z,9.55
2023-02-12T18:14:47.539Z,9.65
2023-02-12T18:17:14.150Z,9.50
2023-02-12T18:19:40.833Z,9.57
2023-02-12T18:22:07.467Z,9.82
2023-02-12T18:24:35.315Z,10.63
2023-02-12T18:27:02.016Z,9.65
2023-02-12T18:29:28.692Z,9.73
2023-02-12T18:31:55.644Z,10.02
2023-02-12T18:34:22.326Z,11.35
2023-02-12T18:36:48.939Z,10.68
2023-02-12T18:39:15.576Z,12.00
2023-02-12T18:41:42.240Z,11.85
2023-02-12T18:44:08.943Z,14.65
2023-02-12T18:46:35.662Z,15.25
2023-02-12T18:49:04.061Z,13.73
2023-02-12T18:51:36.323Z,12.25
2023-02-12T18:54:08.754Z,11.68
2023-02-12T18:56:37.992Z,12.55
2023-02-12T18:59:05.833Z,11.07
2023-02-12T19:01:34.800Z,12.65
2023-02-12T19:04:04.471Z,11.93
2023-02-12T19:06:32.746Z,12.40
2023-02-12T19:09:01.957Z,11.95
2023-02-12T19:11:29.822Z,12.60
2023-02-12T19:13:57.153Z,12.60
2023-02-12T19:16:25.113Z,13.25
2023-02-12T19:18:58.107Z,12.75
2023-02-12T19:21:27.557Z,15.07
2023-02-12T19:23:58.745Z,13.15
2023-02-12T19:26:27.849Z,13.60
2023-02-12T19:28:55.110Z,14.18
2023-02-12T19:31:24.942Z,13.60
2023-02-12T19:33:56.463Z,14.65
2023-02-12T19:36:23.846Z,12.95
2023-02-12T19:38:50.592Z,13.10
2023-02-12T19:41:20.238Z,13.40
2023-02-12T19:43:47.851Z,15.10
2023-02-12T19:46:17.765Z,14.70
2023-02-12T19:48:46.731Z,14.02
2023-02-12T19:51:15.777Z,14.18
2023-02-12T19:53:42.949Z,14.45
2023-02-12T19:56:10.704Z,14.57
2023-02-12T19:58:37.932Z,15.35
2023-02-12T20:01:13.566Z,15.25
2023-02-12T20:03:40.550Z,15.55
2023-02-12T20:06:10.697Z,15.55
2023-02-12T20:08:39.043Z,14.93
2023-02-12T20:11:07.215Z,16.48
2023-02-12T20:13:34.460Z,15.13
2023-02-12T20:16:05.835Z,15.88
2023-02-12T20:18:32.936Z,15.35
2023-02-12T20:20:59.865Z,17.48
2023-02-12T20:23:26.808Z,16.92
2023-02-12T20:25:53.485Z,18.17
2023-02-12T20:28:20.440Z,17.13
2023-02-12T20:30:47.860Z,17.60
2023-02-12T20:33:14.520Z,18.85
2023-02-12T20:35:41.151Z,17.45
2023-02-12T20:38:08.392Z,18.50
2023-02-12T20:40:35.014Z,19.38
2023-02-12T20:43:01.668Z,18.40
2023-02-12T20:45:28.276Z,20.35
2023-02-12T20:47:55.053Z,20.38
2023-02-12T20:50:21.669Z,20.88
2023-02-12T20:52:48.482Z,22.60
2023-02-12T20:55:15.234Z,22.17
2023-02-12T20:57:41.903Z,22.27
2023-02-12T21:00:08.970Z,21.10
2023-02-12T21:02:35.710Z,21.23
2023-02-12T21:05:02.370Z,21.63
2023-02-12T21:07:28.993Z,21.38
2023-02-12T21:09:55.883Z,23.33
2023-02-12T21:12:22.551Z,23.55
2023-02-12T21:14:50.105Z,24.02
2023-02-12T21:17:17.050Z,23.40
2023-02-12T21:19:43.689Z,25.13
2023-02-12T21:22:10.348Z,23.88
2023-02-12T21:24:36.955Z,24.10
2023-02-12T21:27:03.648Z,23.58
2023-02-12T21:29:33.071Z,25.42
2023-02-12T21:32:01.005Z,24.20
2023-02-12T21:34:27.807Z,23.73
2023-02-12T21:36:56.290Z,23.27
2023-02-12T21:39:27.109Z,23.67
2023-02-12T21:41:56.531Z,23.58
2023-02-12T21:44:24.252Z,23.20
2023-02-12T21:46:51.539Z,23.30
2023-02-12T21:49:25.018Z,22.70
2023-02-12T21:54:19.878Z,22.75
2023-02-12T21:56:48.313Z,21.63
2023-02-12T21:59:15.831Z,22.15
2023-02-12T22:01:49.009Z,21.08
2023-02-12T22:04:17.246Z,20.63
2023-02-12T22:06:46.471Z,22.00
2023-02-12T22:09:15.302Z,20.20
2023-02-12T22:11:42.639Z,21.33
2023-02-12T22:14:15.948Z,23.45
2023-02-12T22:16:43.130Z,21.20
2023-02-12T22:19:10.087Z,23.15
2023-02-12T22:21:40.148Z,23.15
2023-02-12T22:24:09.573Z,21.98
2023-02-12T22:26:36.574Z,20.98
2023-02-12T22:29:06.165Z,21.20
2023-02-12T22:31:35.138Z,19.73
2023-02-12T22:34:04.788Z,20.92
2023-02-12T22:36:31.671Z,22.75
2023-02-12T22:39:00.178Z,20.55
2023-02-12T22:41:28.076Z,20.25
2023-02-12T22:43:55.214Z,19.15
2023-02-12T22:46:22.108Z,18.55
2023-02-12T22:48:48.734Z,19.30
2023-02-12T22:51:23.683Z,18.35
2023-02-12T22:53:50.512Z,17.63
2023-02-12T22:56:17.623Z,17.88
2023-02-12T22:58:44.777Z,17.77
2023-02-12T23:01:17.635Z,17.10
2023-02-12T23:03:45.629Z,19.23
2023-02-12T23:06:15.400Z,18.60
2023-02-12T23:08:42.988Z,18.80
2023-02-12T23:11:10.424Z,20.50
2023-02-12T23:13:37.628Z,19.15
2023-02-12T23:16:04.252Z,18.10
2023-02-12T23:18:31.028Z,16.73
2023-02-12T23:20:58.241Z,17.50
2023-02-12T23:23:25.068Z,19.02
2023-02-12T23:25:53.861Z,20.67
2023-02-12T23:28:21.380Z,21.63
2023-02-12T23:30:49.240Z,20.38
2023-02-12T23:33:16.198Z,21.60
2023-02-12T23:35:43.833Z,18.60
2023-02-12T23:38:10.483Z,20.40
2023-02-12T23:40:37.122Z,19.77
2023-02-12T23:43:04.627Z,19.17
2023-02-12T23:45:31.765Z,18.92
2023-02-12T23:47:58.680Z,18.95
2023-02-12T23:50:25.420Z,18.73
2023-02-12T23:52:52.064Z,18.30
2023-02-12T23:55:20.177Z,17.95
2023-02-12T23:57:47.212Z,18.60
